Time;durP1;ratioP1;P1;durP2;ratioP2;P2;SDS_P1;SDS_P2;PMS_P1;PMS_P2;Temp;Humidity;BMP_temperature;BMP_pressure;BME280_temperature;BME280_humidity;BME280_pressure;Samples;Min_cycle;Max_cycle;Signal;HPM_P1;HPM_P2
2022/12/12 00:01:28;;;;;;;0.00;0.00;;;;;;;;;;5030376;28;20028;-72
2022/12/12 00:03:54;;;;;;;0.00;0.00;;;;;;;;;;5036443;28;20120;-71
2022/12/12 00:06:21;;;;;;;0.00;0.00;;;;;;;;;;5052155;28;20036;-72
2022/12/12 00:08:48;;;;;;;0.00;0.00;;;;;;;;;;5035263;28;20609;-70
2022/12/12 00:11:14;;;;;;;0.00;0.00;;;;;;;;;;5032569;28;20032;-72
2022/12/12 00:13:40;;;;;;;0.00;0.00;;;;;;;;;;5027902;28;20033;-71
2022/12/12 00:16:08;;;;;;;0.00;0.00;;;;;;;;;;5036219;28;20119;-70
2022/12/12 00:18:37;;;;;;;0.00;0.00;;;;;;;;;;5029701;28;20103;-71
2022/12/12 00:21:04;;;;;;;0.00;0.00;;;;;;;;;;5053014;28;20056;-71
2022/12/12 00:23:31;;;;;;;0.00;0.00;;;;;;;;;;5034609;28;20107;-71
2022/12/12 00:25:58;;;;;;;0.00;0.00;;;;;;;;;;5054048;28;20467;-72
2022/12/12 00:28:25;;;;;;;0.00;0.00;;;;;;;;;;5054050;28;20025;-73
2022/12/12 00:30:51;;;;;;;0.00;0.00;;;;;;;;;;5035445;28;20021;-71
2022/12/12 00:33:18;;;;;;;0.00;0.00;;;;;;;;;;5035805;28;20040;-71
2022/12/12 00:35:45;;;;;;;0.00;0.00;;;;;;;;;;5035779;28;20021;-71
2022/12/12 00:38:11;;;;;;;0.00;0.00;;;;;;;;;;5053920;28;20024;-72
2022/12/12 00:40:38;;;;;;;0.00;0.00;;;;;;;;;;5035676;28;20103;-72
2022/12/12 00:43:04;;;;;;;0.00;0.00;;;;;;;;;;5053809;28;20017;-72
2022/12/12 00:45:30;;;;;;;0.00;0.00;;;;;;;;;;5053633;28;20021;-72
2022/12/12 00:47:57;;;;;;;0.00;0.00;;;;;;;;;;5053471;28;20383;-71
2022/12/12 00:50:23;;;;;;;0.00;0.00;;;;;;;;;;5035605;28;20471;-73
2022/12/12 00:52:49;;;;;;;0.00;0.00;;;;;;;;;;5035474;28;20513;-72
2022/12/12 00:55:16;;;;;;;0.00;0.00;;;;;;;;;;5036001;28;20116;-71
2022/12/12 00:57:42;;;;;;;0.00;0.00;;;;;;;;;;5035856;28;20107;-71
2022/12/12 01:00:09;;;;;;;0.00;0.00;;;;;;;;;;5051961;28;20128;-71
2022/12/12 01:02:35;;;;;;;0.00;0.00;;;;;;;;;;5029542;28;20040;-72
2022/12/12 01:05:01;;;;;;;0.00;0.00;;;;;;;;;;5051636;28;20029;-72
2022/12/12 01:07:28;;;;;;;0.00;0.00;;;;;;;;;;5035831;28;20025;-72
2022/12/12 01:09:54;;;;;;;0.00;0.00;;;;;;;;;;5053408;28;20029;-72
2022/12/12 01:12:20;;;;;;;0.00;0.00;;;;;;;;;;5035057;28;20135;-72
2022/12/12 01:14:48;;;;;;;0.00;0.00;;;;;;;;;;5053072;28;20390;-72
2022/12/12 01:17:14;;;;;;;0.00;0.00;;;;;;;;;;5034756;28;20024;-71
2022/12/12 01:19:43;;;;;;;0.00;0.00;;;;;;;;;;5033119;28;20352;-72
2022/12/12 01:22:09;;;;;;;0.00;0.00;;;;;;;;;;5048804;28;20099;-72
2022/12/12 01:24:36;;;;;;;0.00;0.00;;;;;;;;;;5029372;28;20036;-75
2022/12/12 01:27:02;;;;;;;0.00;0.00;;;;;;;;;;5027506;28;20057;-70
2022/12/12 01:29:29;;;;;;;0.00;0.00;;;;;;;;;;5053129;28;20391;-71
2022/12/12 01:31:55;;;;;;;0.00;0.00;;;;;;;;;;5035048;28;20083;-71
2022/12/12 01:34:21;;;;;;;0.00;0.00;;;;;;;;;;5034002;28;20552;-71
2022/12/12 01:36:48;;;;;;;0.00;0.00;;;;;;;;;;5052463;28;20029;-71
2022/12/12 01:39:14;;;;;;;0.00;0.00;;;;;;;;;;5030384;28;20032;-72
2022/12/12 01:41:41;;;;;;;0.00;0.00;;;;;;;;;;5028542;28;20479;-71
2022/12/12 01:44:28;;;;;;;0.00;0.00;;;;;;;;;;5029761;28;20024;-72
2022/12/12 01:46:54;;;;;;;0.00;0.00;;;;;;;;;;5016855;28;20128;-72
2022/12/12 01:49:23;;;;;;;0.00;0.00;;;;;;;;;;5031486;28;20025;-72
2022/12/12 01:51:51;;;;;;;0.00;0.00;;;;;;;;;;5047720;28;20870;-73
2022/12/12 01:54:20;;;;;;;0.00;0.00;;;;;;;;;;5024810;28;21532;-73
2022/12/12 01:56:47;;;;;;;0.00;0.00;;;;;;;;;;5024756;28;20056;-72
2022/12/12 01:59:16;;;;;;;0.00;0.00;;;;;;;;;;5027283;28;20120;-71
2022/12/12 02:01:42;;;;;;;0.00;0.00;;;;;;;;;;5044329;28;20088;-72
2022/12/12 02:04:10;;;;;;;0.00;0.00;;;;;;;;;;5039839;28;20047;-72
2022/12/12 02:06:36;;;;;;;0.00;0.00;;;;;;;;;;5022388;28;20028;-72
2022/12/12 02:09:04;;;;;;;0.00;0.00;;;;;;;;;;5030038;28;20040;-73
2022/12/12 02:11:31;;;;;;;0.00;0.00;;;;;;;;;;5040948;28;20656;-73
2022/12/12 02:13:58;;;;;;;0.00;0.00;;;;;;;;;;5024334;28;20093;-72
2022/12/12 02:16:41;;;;;;;0.00;0.00;;;;;;;;;;5044097;28;20029;-74
2022/12/12 02:19:24;;;;;;;0.00;0.00;;;;;;;;;;5046150;28;20028;-71
2022/12/12 02:21:54;;;;;;;0.00;0.00;;;;;;;;;;5040945;28;20097;-71
2022/12/12 02:24:39;;;;;;;0.00;0.00;;;;;;;;;;5050289;28;20039;-72
2022/12/12 02:27:24;;;;;;;0.00;0.00;;;;;;;;;;5040619;28;20030;-72
2022/12/12 02:30:02;;;;;;;0.00;0.00;;;;;;;;;;5042725;28;20021;-72
2022/12/12 02:32:48;;;;;;;0.00;0.00;;;;;;;;;;5049803;28;20036;-72
2022/12/12 02:35:19;;;;;;;0.00;0.00;;;;;;;;;;5046128;28;20025;-72
2022/12/12 02:38:04;;;;;;;0.00;0.00;;;;;;;;;;5047415;28;20032;-71
2022/12/12 02:40:42;;;;;;;0.00;0.00;;;;;;;;;;5050232;28;20071;-79
2022/12/12 02:43:11;;;;;;;0.00;0.00;;;;;;;;;;5044686;28;20056;-79
2022/12/12 02:45:43;;;;;;;0.00;0.00;;;;;;;;;;5045363;28;20619;-81
2022/12/12 02:48:28;;;;;;;0.00;0.00;;;;;;;;;;5048304;28;20021;-81
2022/12/12 02:50:56;;;;;;;0.00;0.00;;;;;;;;;;5045216;28;20382;-82
2022/12/12 02:53:23;;;;;;;0.00;0.00;;;;;;;;;;5046595;28;20040;-81
2022/12/12 02:55:49;;;;;;;0.00;0.00;;;;;;;;;;5051666;28;20029;-82
2022/12/12 02:58:17;;;;;;;0.00;0.00;;;;;;;;;;5047889;28;20122;-83
2022/12/12 03:01:10;;;;;;;0.00;0.00;;;;;;;;;;5043899;28;20095;-81
2022/12/12 03:09:38;;;;;;;0.00;0.00;;;;;;;;;;5043546;28;20044;-80
2022/12/12 03:12:07;;;;;;;0.00;0.00;;;;;;;;;;5049634;28;20493;-79
2022/12/12 03:14:52;;;;;;;0.00;0.00;;;;;;;;;;5043295;28;20083;-81
2022/12/12 03:17:27;;;;;;;0.00;0.00;;;;;;;;;;5043032;28;20029;-81
2022/12/12 03:20:00;;;;;;;0.00;0.00;;;;;;;;;;5041811;28;20060;-80
2022/12/12 03:22:37;;;;;;;0.00;0.00;;;;;;;;;;5006614;28;20045;-81
2022/12/12 03:25:09;;;;;;;0.00;0.00;;;;;;;;;;5011572;28;20089;-81
2022/12/12 03:27:49;;;;;;;0.00;0.00;;;;;;;;;;5011050;28;20025;-81
2022/12/12 03:30:17;;;;;;;0.00;0.00;;;;;;;;;;5024594;28;20036;-82
2022/12/12 03:33:15;;;;;;;0.00;0.00;;;;;;;;;;5024136;28;20022;-82
2022/12/12 03:35:47;;;;;;;0.00;0.00;;;;;;;;;;4972777;28;20042;-83
2022/12/12 03:38:17;;;;;;;0.00;0.00;;;;;;;;;;5031680;28;20029;-72
2022/12/12 03:40:51;;;;;;;0.00;0.00;;;;;;;;;;5032442;28;20040;-72
2022/12/12 03:43:24;;;;;;;0.00;0.00;;;;;;;;;;5023571;28;20036;-71
2022/12/12 03:45:54;;;;;;;0.00;0.00;;;;;;;;;;5010540;28;20053;-73
2022/12/12 03:48:26;;;;;;;0.00;0.00;;;;;;;;;;5009039;28;20044;-81
2022/12/12 03:51:00;;;;;;;0.00;0.00;;;;;;;;;;5023851;28;20038;-72
2022/12/12 03:53:39;;;;;;;0.00;0.00;;;;;;;;;;5008699;28;20100;-73
2022/12/12 03:56:08;;;;;;;0.00;0.00;;;;;;;;;;5025893;28;20130;-72
2022/12/12 03:58:38;;;;;;;0.00;0.00;;;;;;;;;;5024956;28;20106;-72
2022/12/12 04:01:06;;;;;;;0.00;0.00;;;;;;;;;;5018479;28;20034;-71
2022/12/12 04:03:39;;;;;;;0.00;0.00;;;;;;;;;;5025574;28;20026;-72
2022/12/12 04:14:40;;;;;;;0.00;0.00;;;;;;;;;;5030438;28;20079;-71
2022/12/12 04:17:09;;;;;;;0.00;0.00;;;;;;;;;;5006233;28;20045;-72
2022/12/12 04:25:33;;;;;;;0.00;0.00;;;;;;;;;;5046583;28;20439;-70
2022/12/12 04:28:03;;;;;;;0.00;0.00;;;;;;;;;;5045625;28;20056;-70
2022/12/12 04:30:31;;;;;;;0.00;0.00;;;;;;;;;;5051169;28;20024;-76
2022/12/12 04:33:09;;;;;;;0.00;0.00;;;;;;;;;;5041808;28;20039;-75
2022/12/12 04:35:40;;;;;;;0.00;0.00;;;;;;;;;;5050553;28;20033;-72
2022/12/12 04:38:17;;;;;;;0.00;0.00;;;;;;;;;;5035829;28;20029;-81
2022/12/12 04:40:45;;;;;;;0.00;0.00;;;;;;;;;;5033286;28;20471;-81
2022/12/12 04:43:37;;;;;;;0.00;0.00;;;;;;;;;;5031244;28;20102;-78
2022/12/12 04:46:13;;;;;;;0.00;0.00;;;;;;;;;;5044952;28;20040;-79
2022/12/12 04:48:42;;;;;;;0.00;0.00;;;;;;;;;;5034530;28;20035;-78
2022/12/12 04:51:09;;;;;;;0.00;0.00;;;;;;;;;;5052527;28;20021;-78
2022/12/12 04:53:39;;;;;;;0.00;0.00;;;;;;;;;;5049464;28;20032;-81
2022/12/12 04:56:10;;;;;;;0.00;0.00;;;;;;;;;;5029018;28;20056;-78
2022/12/12 04:58:38;;;;;;;0.00;0.00;;;;;;;;;;5046999;28;20131;-79
2022/12/12 05:01:04;;;;;;;0.00;0.00;;;;;;;;;;5034745;28;20051;-81
2022/12/12 05:03:51;;;;;;;0.00;0.00;;;;;;;;;;5032608;28;20059;-78
2022/12/12 05:06:19;;;;;;;0.00;0.00;;;;;;;;;;5046005;28;20066;-79
2022/12/12 05:08:47;;;;;;;0.00;0.00;;;;;;;;;;5050059;28;20021;-81
2022/12/12 05:11:14;;;;;;;0.00;0.00;;;;;;;;;;5035920;28;20040;-80
2022/12/12 05:13:42;;;;;;;0.00;0.00;;;;;;;;;;5043059;28;20051;-81
2022/12/12 05:16:18;;;;;;;0.00;0.00;;;;;;;;;;5026266;28;20036;-79
2022/12/12 05:18:47;;;;;;;0.00;0.00;;;;;;;;;;5032674;28;20032;-79
2022/12/12 05:21:14;;;;;;;0.00;0.00;;;;;;;;;;5039570;28;20051;-81
2022/12/12 05:23:40;;;;;;;0.00;0.00;;;;;;;;;;5043342;28;20035;-81
2022/12/12 05:26:08;;;;;;;0.00;0.00;;;;;;;;;;5041634;28;20095;-80
2022/12/12 05:28:35;;;;;;;0.00;0.00;;;;;;;;;;5048052;28;20028;-79
2022/12/12 05:31:01;;;;;;;0.03;0.03;;;;;;;;;;5044602;28;20027;-79
2022/12/12 05:33:28;;;;;;;0.00;0.00;;;;;;;;;;5038202;28;20115;-78
2022/12/12 05:35:54;;;;;;;0.00;0.00;;;;;;;;;;5057137;28;20029;-80
2022/12/12 05:38:20;;;;;;;0.00;0.00;;;;;;;;;;5050009;28;20463;-78
2022/12/12 05:40:46;;;;;;;0.00;0.00;;;;;;;;;;5046980;28;20029;-78
2022/12/12 05:43:13;;;;;;;0.00;0.00;;;;;;;;;;5043354;28;20052;-78
2022/12/12 05:45:39;;;;;;;0.00;0.00;;;;;;;;;;5046395;28;20098;-79
2022/12/12 05:48:06;;;;;;;0.00;0.00;;;;;;;;;;5045147;28;20124;-78
2022/12/12 05:50:32;;;;;;;0.00;0.00;;;;;;;;;;5048239;28;20021;-77
2022/12/12 05:52:58;;;;;;;0.00;0.00;;;;;;;;;;5047775;28;20029;-77
2022/12/12 05:55:25;;;;;;;0.00;0.00;;;;;;;;;;5048562;28;20037;-79
2022/12/12 05:57:51;;;;;;;0.00;0.00;;;;;;;;;;5045653;28;20033;-80
2022/12/12 06:00:18;;;;;;;0.00;0.00;;;;;;;;;;5046340;28;20065;-79
2022/12/12 06:02:44;;;;;;;0.00;0.00;;;;;;;;;;5044065;28;20037;-86
2022/12/12 06:05:10;;;;;;;0.00;0.00;;;;;;;;;;5046758;28;20029;-85
2022/12/12 06:07:40;;;;;;;0.00;0.00;;;;;;;;;;5044540;28;20078;-82
2022/12/12 06:10:06;;;;;;;0.00;0.00;;;;;;;;;;5049059;28;20036;-72
2022/12/12 06:12:33;;;;;;;0.00;0.00;;;;;;;;;;5046171;28;20907;-72
2022/12/12 06:14:59;;;;;;;0.10;0.10;;;;;;;;;;5048215;28;20044;-72
2022/12/12 06:17:25;;;;;;;0.00;0.00;;;;;;;;;;5034998;28;20045;-72
2022/12/12 06:19:52;;;;;;;0.00;0.00;;;;;;;;;;5037023;28;20230;-74
2022/12/12 06:22:18;;;;;;;0.00;0.00;;;;;;;;;;5013069;28;20072;-77
2022/12/12 06:24:44;;;;;;;0.00;0.00;;;;;;;;;;5003770;28;20480;-78
2022/12/12 06:27:11;;;;;;;0.00;0.00;;;;;;;;;;5021319;28;20029;-77
2022/12/12 06:29:37;;;;;;;0.00;0.00;;;;;;;;;;5023028;28;20056;-76
2022/12/12 06:32:03;;;;;;;0.00;0.00;;;;;;;;;;5012725;28;20033;-77
2022/12/12 06:34:30;;;;;;;0.00;0.00;;;;;;;;;;5024407;28;20040;-72
2022/12/12 06:36:56;;;;;;;0.00;0.00;;;;;;;;;;5007726;28;20041;-78
2022/12/12 06:39:22;;;;;;;0.10;0.10;;;;;;;;;;5013845;28;20044;-75
2022/12/12 06:41:49;;;;;;;0.00;0.00;;;;;;;;;;5034531;28;20026;-74
2022/12/12 06:44:15;;;;;;;0.10;0.10;;;;;;;;;;5008463;28;20057;-75
2022/12/12 06:46:42;;;;;;;0.00;0.00;;;;;;;;;;5023786;28;20033;-73
2022/12/12 06:49:09;;;;;;;0.00;0.00;;;;;;;;;;5011880;28;20408;-73
2022/12/12 06:51:37;;;;;;;0.00;0.00;;;;;;;;;;5012028;28;20488;-73
2022/12/12 06:54:04;;;;;;;0.10;0.10;;;;;;;;;;5012151;28;20030;-77
2022/12/12 06:56:30;;;;;;;0.10;0.10;;;;;;;;;;5013512;28;20037;-73
2022/12/12 06:58:57;;;;;;;0.10;0.10;;;;;;;;;;5009430;28;20041;-73
2022/12/12 07:01:24;;;;;;;0.10;0.10;;;;;;;;;;5006027;28;20067;-76
2022/12/12 07:03:51;;;;;;;0.03;0.03;;;;;;;;;;5017032;28;20025;-77
2022/12/12 07:06:18;;;;;;;0.03;0.03;;;;;;;;;;5029217;28;20033;-78
2022/12/12 07:08:45;;;;;;;0.10;0.10;;;;;;;;;;5012880;28;20148;-74
2022/12/12 07:11:13;;;;;;;0.10;0.10;;;;;;;;;;5022701;28;20517;-72
2022/12/12 07:13:40;;;;;;;0.00;0.00;;;;;;;;;;5004322;28;20034;-73
2022/12/12 07:16:07;;;;;;;0.00;0.00;;;;;;;;;;5028120;28;20051;-72
2022/12/12 07:18:33;;;;;;;0.10;0.10;;;;;;;;;;5020714;28;20391;-72
2022/12/12 07:21:03;;;;;;;0.10;0.10;;;;;;;;;;5030294;28;20057;-74
2022/12/12 07:23:29;;;;;;;0.10;0.10;;;;;;;;;;5050181;28;20024;-73
2022/12/12 07:25:56;;;;;;;0.00;0.00;;;;;;;;;;5050244;28;20395;-73
2022/12/12 07:28:22;;;;;;;0.10;0.10;;;;;;;;;;5026107;28;20116;-76
2022/12/12 07:30:52;;;;;;;0.07;0.07;;;;;;;;;;5030456;28;20037;-77
2022/12/12 07:33:18;;;;;;;0.10;0.10;;;;;;;;;;5029525;28;20369;-79
2022/12/12 07:35:45;;;;;;;0.10;0.10;;;;;;;;;;5030083;28;20029;-77
2022/12/12 07:38:12;;;;;;;0.10;0.10;;;;;;;;;;5047719;28;20025;-77
2022/12/12 07:40:38;;;;;;;0.10;0.10;;;;;;;;;;5026039;28;20044;-78
2022/12/12 07:43:04;;;;;;;0.10;0.10;;;;;;;;;;5026878;28;20040;-77
2022/12/12 07:45:31;;;;;;;0.00;0.00;;;;;;;;;;5027296;28;20105;-77
2022/12/12 07:47:57;;;;;;;0.00;0.00;;;;;;;;;;5047969;28;20087;-75
2022/12/12 07:50:23;;;;;;;0.07;0.07;;;;;;;;;;5045578;28;20036;-74
2022/12/12 07:52:50;;;;;;;0.00;0.00;;;;;;;;;;5030286;28;20043;-74
2022/12/12 07:55:16;;;;;;;0.07;0.07;;;;;;;;;;5030534;28;20040;-75
2022/12/12 07:57:42;;;;;;;0.03;0.03;;;;;;;;;;5041573;28;20033;-72
2022/12/12 08:00:12;;;;;;;0.00;0.00;;;;;;;;;;5047289;28;20029;-78
2022/12/12 08:02:38;;;;;;;0.00;0.00;;;;;;;;;;5029806;28;20065;-76
2022/12/12 08:05:05;;;;;;;0.10;0.10;;;;;;;;;;5050989;28;20064;-78
2022/12/12 08:07:31;;;;;;;0.00;0.00;;;;;;;;;;5034290;28;20140;-74
2022/12/12 08:09:57;;;;;;;0.00;0.00;;;;;;;;;;5029622;28;20099;-74
2022/12/12 08:12:24;;;;;;;0.03;0.03;;;;;;;;;;5045850;28;20116;-74
2022/12/12 08:14:50;;;;;;;0.00;0.00;;;;;;;;;;5026550;28;20075;-75
2022/12/12 08:17:16;;;;;;;0.00;0.00;;;;;;;;;;5031615;28;20047;-73
2022/12/12 08:19:43;;;;;;;0.10;0.10;;;;;;;;;;5027911;28;20365;-73
2022/12/12 08:22:09;;;;;;;0.00;0.00;;;;;;;;;;5041526;28;20044;-72
2022/12/12 08:24:35;;;;;;;0.00;0.00;;;;;;;;;;5052607;28;20031;-78
2022/12/12 08:27:02;;;;;;;0.00;0.00;;;;;;;;;;5051555;28;20119;-77
2022/12/12 08:29:28;;;;;;;0.00;0.00;;;;;;;;;;5052381;28;20025;-78
2022/12/12 08:31:54;;;;;;;0.10;0.10;;;;;;;;;;5047542;28;20061;-76
2022/12/12 08:34:21;;;;;;;0.10;0.10;;;;;;;;;;5046504;28;20476;-77
2022/12/12 08:36:48;;;;;;;0.00;0.00;;;;;;;;;;5038667;28;20899;-78
2022/12/12 08:39:15;;;;;;;0.00;0.00;;;;;;;;;;5034605;28;20068;-77
2022/12/12 08:41:43;;;;;;;0.10;0.10;;;;;;;;;;5055448;28;20031;-79
2022/12/12 08:44:11;;;;;;;0.10;0.10;;;;;;;;;;5053279;28;20025;-77
2022/12/12 08:46:37;;;;;;;0.00;0.00;;;;;;;;;;5055418;28;20041;-80
2022/12/12 08:49:04;;;;;;;0.10;0.10;;;;;;;;;;5064878;28;20025;-80
2022/12/12 08:51:30;;;;;;;0.10;0.10;;;;;;;;;;5045910;28;20507;-82
2022/12/12 08:53:56;;;;;;;0.07;0.07;;;;;;;;;;5044303;28;20131;-81
2022/12/12 08:56:23;;;;;;;0.00;0.00;;;;;;;;;;5048233;28;20531;-80
2022/12/12 08:58:50;;;;;;;0.00;0.00;;;;;;;;;;5050588;28;20039;-82
2022/12/12 09:01:18;;;;;;;0.00;0.00;;;;;;;;;;5050043;28;20034;-83
2022/12/12 09:03:44;;;;;;;0.10;0.10;;;;;;;;;;5045739;28;20102;-72
2022/12/12 09:06:11;;;;;;;0.00;0.00;;;;;;;;;;5045136;28;20116;-71
2022/12/12 09:08:38;;;;;;;0.10;0.10;;;;;;;;;;5049122;28;20025;-72
2022/12/12 09:11:04;;;;;;;0.00;0.00;;;;;;;;;;5041889;28;20029;-75
2022/12/12 09:13:30;;;;;;;0.00;0.00;;;;;;;;;;5044435;28;20497;-74
2022/12/12 09:15:57;;;;;;;0.10;0.10;;;;;;;;;;5047664;28;20543;-75
2022/12/12 09:18:23;;;;;;;0.00;0.00;;;;;;;;;;5051118;28;20025;-70
2022/12/12 09:20:50;;;;;;;0.00;0.00;;;;;;;;;;5049294;28;20048;-71
2022/12/12 09:23:17;;;;;;;0.00;0.00;;;;;;;;;;5047235;28;20091;-72
2022/12/12 09:25:43;;;;;;;0.07;0.07;;;;;;;;;;5042027;28;20156;-73
2022/12/12 09:28:13;;;;;;;0.10;0.10;;;;;;;;;;5049786;28;20037;-71
2022/12/12 09:30:39;;;;;;;0.10;0.10;;;;;;;;;;5046412;28;20028;-72
2022/12/12 09:33:06;;;;;;;0.00;0.00;;;;;;;;;;5050205;28;20033;-70
2022/12/12 09:35:58;;;;;;;0.03;0.03;;;;;;;;;;5050215;28;20630;-70
2022/12/12 09:38:26;;;;;;;0.10;0.10;;;;;;;;;;5047635;28;20372;-71
2022/12/12 09:41:03;;;;;;;0.00;0.00;;;;;;;;;;5049214;28;20364;-70
2022/12/12 09:43:38;;;;;;;0.00;0.00;;;;;;;;;;5043014;28;20487;-71
2022/12/12 09:46:14;;;;;;;0.00;0.00;;;;;;;;;;5049201;28;20359;-71
2022/12/12 09:48:46;;;;;;;0.00;0.00;;;;;;;;;;5044253;28;20384;-71
2022/12/12 09:51:13;;;;;;;0.10;0.10;;;;;;;;;;5044967;28;20388;-71
2022/12/12 09:53:41;;;;;;;0.10;0.10;;;;;;;;;;5046341;28;20027;-71
2022/12/12 09:56:14;;;;;;;0.10;0.10;;;;;;;;;;5047257;28;20488;-71
2022/12/12 09:58:54;;;;;;;0.00;0.00;;;;;;;;;;5037049;28;20026;-71
2022/12/12 10:01:37;;;;;;;0.00;0.00;;;;;;;;;;5041718;28;20056;-73
2022/12/12 10:04:10;;;;;;;0.00;0.00;;;;;;;;;;5043081;28;20086;-70
2022/12/12 10:06:57;;;;;;;0.00;0.00;;;;;;;;;;5043189;28;20056;-72
2022/12/12 10:09:23;;;;;;;0.10;0.10;;;;;;;;;;5045921;28;20031;-72
2022/12/12 10:11:50;;;;;;;0.10;0.10;;;;;;;;;;5039733;28;20055;-72
2022/12/12 10:14:26;;;;;;;0.10;0.10;;;;;;;;;;5040742;28;20883;-76
2022/12/12 10:16:52;;;;;;;0.00;0.00;;;;;;;;;;5049776;28;20025;-72
2022/12/12 10:19:27;;;;;;;0.00;0.00;;;;;;;;;;5049104;28;20029;-72
2022/12/12 10:21:56;;;;;;;0.00;0.00;;;;;;;;;;5046836;28;20052;-73
2022/12/12 10:24:28;;;;;;;0.07;0.07;;;;;;;;;;5049633;28;20517;-70
2022/12/12 10:26:55;;;;;;;0.10;0.10;;;;;;;;;;5051328;28;20036;-73
2022/12/12 10:29:22;;;;;;;0.07;0.07;;;;;;;;;;5048291;28;20033;-73
2022/12/12 10:31:58;;;;;;;0.00;0.00;;;;;;;;;;5055148;28;20078;-72
2022/12/12 10:34:24;;;;;;;0.10;0.10;;;;;;;;;;5052731;28;20475;-76
2022/12/12 10:37:00;;;;;;;0.10;0.10;;;;;;;;;;5051283;28;20040;-76
2022/12/12 10:39:29;;;;;;;0.00;0.00;;;;;;;;;;5050502;28;20044;-76
2022/12/12 10:41:59;;;;;;;0.00;0.00;;;;;;;;;;5054652;28;20041;-76
2022/12/12 10:44:25;;;;;;;0.00;0.00;;;;;;;;;;5046094;28;20045;-76
2022/12/12 10:46:52;;;;;;;0.00;0.00;;;;;;;;;;5055395;28;20078;-79
2022/12/12 10:49:20;;;;;;;0.00;0.00;;;;;;;;;;5054899;28;20083;-78
2022/12/12 10:51:48;;;;;;;0.10;0.10;;;;;;;;;;5064590;28;20040;-78
2022/12/12 10:54:17;;;;;;;0.00;0.00;;;;;;;;;;5054052;28;20039;-77
2022/12/12 10:57:02;;;;;;;0.00;0.00;;;;;;;;;;5051222;28;20449;-79
2022/12/12 10:59:28;;;;;;;0.00;0.00;;;;;;;;;;5051723;28;20079;-78
2022/12/12 11:01:59;;;;;;;0.00;0.00;;;;;;;;;;5052618;28;20043;-80
2022/12/12 11:04:27;;;;;;;0.03;0.03;;;;;;;;;;5054296;28;20017;-80
2022/12/12 11:06:55;;;;;;;0.00;0.00;;;;;;;;;;5064065;28;20025;-77
2022/12/12 11:09:23;;;;;;;0.00;0.00;;;;;;;;;;5053132;28;20017;-76
2022/12/12 11:11:58;;;;;;;0.00;0.00;;;;;;;;;;5049490;28;20115;-79
2022/12/12 11:14:32;;;;;;;0.10;0.10;;;;;;;;;;5050211;28;20033;-80
2022/12/12 11:16:58;;;;;;;0.10;0.10;;;;;;;;;;5049232;28;20021;-80
2022/12/12 11:19:26;;;;;;;0.00;0.00;;;;;;;;;;5050795;28;20037;-80
2022/12/12 11:21:54;;;;;;;0.00;0.00;;;;;;;;;;5049863;28;20056;-78
2022/12/12 11:24:33;;;;;;;0.10;0.10;;;;;;;;;;5048022;28;20056;-81
2022/12/12 11:27:01;;;;;;;0.10;0.10;;;;;;;;;;5051409;28;20108;-80
2022/12/12 11:29:31;;;;;;;0.07;0.07;;;;;;;;;;5050970;28;20112;-81
2022/12/12 11:31:58;;;;;;;0.00;0.00;;;;;;;;;;5053364;28;20025;-78
2022/12/12 11:34:25;;;;;;;0.00;0.00;;;;;;;;;;5049962;28;20025;-77
2022/12/12 11:36:52;;;;;;;0.00;0.00;;;;;;;;;;5046594;28;20134;-78
2022/12/12 11:39:23;;;;;;;0.00;0.00;;;;;;;;;;5051293;28;20035;-79
2022/12/12 11:42:01;;;;;;;0.03;0.03;;;;;;;;;;5049413;28;20041;-77
2022/12/12 11:44:32;;;;;;;0.10;0.10;;;;;;;;;;5051515;28;20167;-81
2022/12/12 11:47:14;;;;;;;0.00;0.00;;;;;;;;;;5045818;28;20021;-78
2022/12/12 11:49:46;;;;;;;0.00;0.00;;;;;;;;;;5052269;28;20021;-78
2022/12/12 11:52:19;;;;;;;0.00;0.00;;;;;;;;;;5047369;28;20059;-79
2022/12/12 11:54:46;;;;;;;0.00;0.00;;;;;;;;;;5058525;28;20108;-78
2022/12/12 11:57:28;;;;;;;0.00;0.00;;;;;;;;;;5058363;28;20463;-79
2022/12/12 12:00:02;;;;;;;0.00;0.00;;;;;;;;;;5054001;28;20029;-78
2022/12/12 12:02:29;;;;;;;0.00;0.00;;;;;;;;;;5055693;28;20082;-78
2022/12/12 12:05:04;;;;;;;0.00;0.00;;;;;;;;;;5051929;28;20021;-78
2022/12/12 12:07:49;;;;;;;0.10;0.10;;;;;;;;;;5051546;28;20116;-77
2022/12/12 12:10:15;;;;;;;0.10;0.10;;;;;;;;;;5044090;28;20029;-72
2022/12/12 12:12:54;;;;;;;0.00;0.00;;;;;;;;;;5049166;28;20071;-76
2022/12/12 12:15:20;;;;;;;0.00;0.00;;;;;;;;;;5050082;28;20021;-72
2022/12/12 12:18:16;;;;;;;0.00;0.00;;;;;;;;;;5051216;28;20131;-72
2022/12/12 12:20:52;;;;;;;0.00;0.00;;;;;;;;;;5037783;28;20029;-73
2022/12/12 12:23:18;;;;;;;0.00;0.00;;;;;;;;;;5035306;28;20064;-74
2022/12/12 12:25:57;;;;;;;0.00;0.00;;;;;;;;;;5032566;28;20029;-73
2022/12/12 12:28:34;;;;;;;0.00;0.00;;;;;;;;;;5039462;28;20028;-73
2022/12/12 12:31:03;;;;;;;0.00;0.00;;;;;;;;;;5041571;28;20029;-73
2022/12/12 12:33:35;;;;;;;0.00;0.00;;;;;;;;;;5021340;28;20025;-73
2022/12/12 12:36:04;;;;;;;0.00;0.00;;;;;;;;;;5061789;28;20059;-74
2022/12/12 12:38:49;;;;;;;0.07;0.07;;;;;;;;;;5029695;28;20029;-74
2022/12/12 12:41:34;;;;;;;0.00;0.00;;;;;;;;;;5045340;28;20027;-73
2022/12/12 12:44:30;;;;;;;0.00;0.00;;;;;;;;;;5017923;28;20572;-72
2022/12/12 12:47:15;;;;;;;0.00;0.00;;;;;;;;;;5010091;28;20029;-73
2022/12/12 12:49:48;;;;;;;0.00;0.00;;;;;;;;;;5034913;28;20075;-73
2022/12/12 12:52:22;;;;;;;0.00;0.00;;;;;;;;;;5025156;28;20053;-74
2022/12/12 12:54:48;;;;;;;0.00;0.00;;;;;;;;;;5016178;28;20394;-71
2022/12/12 12:57:18;;;;;;;0.00;0.00;;;;;;;;;;5034306;28;20034;-75
2022/12/12 12:59:47;;;;;;;0.00;0.00;;;;;;;;;;5023059;28;20368;-75
2022/12/12 13:02:20;;;;;;;0.00;0.00;;;;;;;;;;5035484;28;20035;-74
2022/12/12 13:04:50;;;;;;;0.00;0.00;;;;;;;;;;5053224;28;20029;-74
2022/12/12 13:07:26;;;;;;;0.00;0.00;;;;;;;;;;5019795;28;20035;-73
2022/12/12 13:10:02;;;;;;;0.00;0.00;;;;;;;;;;5035195;28;20028;-73
2022/12/12 13:12:51;;;;;;;0.00;0.00;;;;;;;;;;5035472;28;20124;-74
2022/12/12 13:15:36;;;;;;;0.00;0.00;;;;;;;;;;5035308;28;20031;-73
2022/12/12 13:18:08;;;;;;;0.00;0.00;;;;;;;;;;5053496;28;20045;-73
2022/12/12 13:20:38;;;;;;;0.00;0.00;;;;;;;;;;5054556;28;20110;-73
2022/12/12 13:23:24;;;;;;;0.00;0.00;;;;;;;;;;5053356;28;20029;-72
2022/12/12 13:25:58;;;;;;;0.00;0.00;;;;;;;;;;5052534;28;20036;-73
2022/12/12 13:28:40;;;;;;;0.00;0.00;;;;;;;;;;5034837;28;20021;-71
2022/12/12 13:31:19;;;;;;;0.00;0.00;;;;;;;;;;5051450;28;20032;-72
2022/12/12 13:33:48;;;;;;;0.00;0.00;;;;;;;;;;5035028;28;20017;-74
2022/12/12 13:36:22;;;;;;;0.00;0.00;;;;;;;;;;5033618;28;20025;-74
2022/12/12 13:38:51;;;;;;;0.00;0.00;;;;;;;;;;5034738;28;20025;-73
2022/12/12 13:41:17;;;;;;;0.00;0.00;;;;;;;;;;5034434;28;20391;-74
2022/12/12 13:43:45;;;;;;;0.00;0.00;;;;;;;;;;5052632;28;20052;-73
2022/12/12 13:46:19;;;;;;;0.00;0.00;;;;;;;;;;5035142;28;20079;-73
2022/12/12 13:48:48;;;;;;;0.00;0.00;;;;;;;;;;5052023;28;20040;-75
2022/12/12 13:51:26;;;;;;;0.00;0.00;;;;;;;;;;5034647;28;20025;-73
2022/12/12 13:54:09;;;;;;;0.00;0.00;;;;;;;;;;5034207;28;20056;-73
2022/12/12 13:56:35;;;;;;;0.00;0.00;;;;;;;;;;5033914;28;20042;-74
2022/12/12 13:59:02;;;;;;;0.00;0.00;;;;;;;;;;5034673;28;20019;-75
2022/12/12 14:01:28;;;;;;;0.00;0.00;;;;;;;;;;5034245;28;20090;-74
2022/12/12 14:03:55;;;;;;;0.00;0.00;;;;;;;;;;5034385;28;20017;-73
2022/12/12 14:06:21;;;;;;;0.00;0.00;;;;;;;;;;5034075;28;20017;-74
2022/12/12 14:08:49;;;;;;;0.00;0.00;;;;;;;;;;5034320;28;20545;-75
2022/12/12 14:11:26;;;;;;;0.00;0.00;;;;;;;;;;5030400;28;20048;-73
2022/12/12 14:14:02;;;;;;;0.00;0.00;;;;;;;;;;5051709;28;20021;-74
2022/12/12 14:16:28;;;;;;;0.00;0.00;;;;;;;;;;5034261;28;20025;-74
2022/12/12 14:19:17;;;;;;;0.00;0.00;;;;;;;;;;5034508;28;20029;-73
2022/12/12 14:21:45;;;;;;;0.00;0.00;;;;;;;;;;5051857;28;20088;-74
2022/12/12 14:24:30;;;;;;;0.00;0.00;;;;;;;;;;5035383;28;20390;-74
2022/12/12 14:26:57;;;;;;;0.00;0.00;;;;;;;;;;5033524;28;20462;-73
2022/12/12 14:29:25;;;;;;;0.00;0.00;;;;;;;;;;5033839;28;20069;-73
2022/12/12 14:32:10;;;;;;;0.00;0.00;;;;;;;;;;5034162;28;20025;-73
2022/12/12 14:34:42;;;;;;;0.00;0.00;;;;;;;;;;5052065;28;20033;-74
2022/12/12 14:37:18;;;;;;;0.00;0.00;;;;;;;;;;5034305;28;20487;-74
2022/12/12 14:39:44;;;;;;;0.00;0.00;;;;;;;;;;5034560;28;20029;-75
2022/12/12 14:42:18;;;;;;;0.00;0.00;;;;;;;;;;5033887;28;20025;-75
2022/12/12 14:44:45;;;;;;;0.00;0.00;;;;;;;;;;5047422;28;20021;-78
2022/12/12 14:47:15;;;;;;;0.00;0.00;;;;;;;;;;5033880;28;20581;-75
2022/12/12 14:49:41;;;;;;;0.00;0.00;;;;;;;;;;5033720;28;20451;-74
2022/12/12 14:52:12;;;;;;;0.00;0.00;;;;;;;;;;5052406;28;20029;-75
2022/12/12 14:54:38;;;;;;;0.00;0.00;;;;;;;;;;5056458;28;20069;-74
2022/12/12 14:57:06;;;;;;;0.00;0.00;;;;;;;;;;5034157;28;20447;-75
2022/12/12 14:59:36;;;;;;;0.00;0.00;;;;;;;;;;5036934;28;20095;-75
2022/12/12 15:02:24;;;;;;;0.00;0.00;;;;;;;;;;5038474;28;20098;-75
2022/12/12 15:04:52;;;;;;;0.00;0.00;;;;;;;;;;5038469;28;20032;-74
2022/12/12 15:07:23;;;;;;;0.00;0.00;;;;;;;;;;5038180;28;20106;-75
2022/12/12 15:09:50;;;;;;;0.00;0.00;;;;;;;;;;5038426;28;20017;-75
2022/12/12 15:12:18;;;;;;;0.00;0.00;;;;;;;;;;5056018;28;20025;-75
2022/12/12 15:14:48;;;;;;;0.00;0.00;;;;;;;;;;5037975;28;20029;-74
2022/12/12 15:17:18;;;;;;;0.00;0.00;;;;;;;;;;5038135;28;20379;-75
2022/12/12 15:19:44;;;;;;;0.00;0.00;;;;;;;;;;5038016;28;20479;-75
2022/12/12 15:22:13;;;;;;;0.00;0.00;;;;;;;;;;5051051;28;20072;-75